sensor_id;sensor_type;location;lat;lon;timestamp;P1;durP1;ratioP1;P2;durP2;ratioP2
55813;SDS011;65494;42.818;0.404;2023-08-12T00:00:28;11.50;;;4.53;;
55813;SDS011;65494;42.818;0.404;2023-08-12T00:02:55;11.07;;;3.95;;
55813;SDS011;65494;42.818;0.404;2023-08-12T00:05:21;11.75;;;4.00;;
55813;SDS011;65494;42.818;0.404;2023-08-12T00:07:47;12.10;;;4.45;;
55813;SDS011;65494;42.818;0.404;2023-08-12T00:10:14;9.77;;;4.25;;
55813;SDS011;65494;42.818;0.404;2023-08-12T00:12:40;12.80;;;4.35;;
55813;SDS011;65494;42.818;0.404;2023-08-12T00:15:07;13.43;;;4.40;;
55813;SDS011;65494;42.818;0.404;2023-08-12T00:17:34;10.23;;;3.63;;
55813;SDS011;65494;42.818;0.404;2023-08-12T00:20:02;9.95;;;3.80;;
55813;SDS011;65494;42.818;0.404;2023-08-12T00:22:33;15.38;;;4.43;;
55813;SDS011;65494;42.818;0.404;2023-08-12T00:24:59;10.13;;;4.00;;
55813;SDS011;65494;42.818;0.404;2023-08-12T00:27:25;10.88;;;4.70;;
55813;SDS011;65494;42.818;0.404;2023-08-12T00:29:51;10.88;;;4.00;;
55813;SDS011;65494;42.818;0.404;2023-08-12T00:32:18;9.05;;;3.75;;
55813;SDS011;65494;42.818;0.404;2023-08-12T00:34:44;8.85;;;3.92;;
55813;SDS011;65494;42.818;0.404;2023-08-12T00:37:10;7.00;;;3.63;;
55813;SDS011;65494;42.818;0.404;2023-08-12T00:39:36;10.95;;;3.63;;
55813;SDS011;65494;42.818;0.404;2023-08-12T00:42:02;8.48;;;4.30;;
55813;SDS011;65494;42.818;0.404;2023-08-12T00:44:28;8.50;;;4.03;;
55813;SDS011;65494;42.818;0.404;2023-08-12T00:46:54;10.60;;;4.25;;
55813;SDS011;65494;42.818;0.404;2023-08-12T00:49:21;13.98;;;4.00;;
55813;SDS011;65494;42.818;0.404;2023-08-12T00:51:47;10.95;;;4.05;;
55813;SDS011;65494;42.818;0.404;2023-08-12T00:54:14;9.13;;;3.90;;
55813;SDS011;65494;42.818;0.404;2023-08-12T00:56:41;9.63;;;3.83;;
55813;SDS011;65494;42.818;0.404;2023-08-12T00:59:07;8.63;;;3.63;;
55813;SDS011;65494;42.818;0.404;2023-08-12T01:01:34;11.60;;;4.43;;
55813;SDS011;65494;42.818;0.404;2023-08-12T01:04:00;10.40;;;3.88;;
55813;SDS011;65494;42.818;0.404;2023-08-12T01:06:26;9.75;;;3.75;;
55813;SDS011;65494;42.818;0.404;2023-08-12T01:08:52;10.52;;;4.15;;
55813;SDS011;65494;42.818;0.404;2023-08-12T01:14:06;10.07;;;3.97;;
55813;SDS011;65494;42.818;0.404;2023-08-12T01:16:35;8.63;;;4.07;;
55813;SDS011;65494;42.818;0.404;2023-08-12T01:19:04;8.75;;;4.28;;
55813;SDS011;65494;42.818;0.404;2023-08-12T01:21:31;8.95;;;4.30;;
55813;SDS011;65494;42.818;0.404;2023-08-12T01:23:59;10.50;;;3.75;;
55813;SDS011;65494;42.818;0.404;2023-08-12T01:26:25;12.32;;;4.05;;
55813;SDS011;65494;42.818;0.404;2023-08-12T01:28:51;9.50;;;3.75;;
55813;SDS011;65494;42.818;0.404;2023-08-12T01:31:29;10.55;;;4.03;;
55813;SDS011;65494;42.818;0.404;2023-08-12T01:34:09;9.82;;;3.60;;
55813;SDS011;65494;42.818;0.404;2023-08-12T01:36:37;11.82;;;4.05;;
55813;SDS011;65494;42.818;0.404;2023-08-12T01:39:05;12.35;;;3.97;;
55813;SDS011;65494;42.818;0.404;2023-08-12T01:41:31;8.48;;;3.50;;
55813;SDS011;65494;42.818;0.404;2023-08-12T01:43:57;10.75;;;3.92;;
55813;SDS011;65494;42.818;0.404;2023-08-12T01:46:24;10.77;;;3.78;;
55813;SDS011;65494;42.818;0.404;2023-08-12T01:48:50;12.52;;;5.25;;
55813;SDS011;65494;42.818;0.404;2023-08-12T01:51:16;10.32;;;3.95;;
55813;SDS011;65494;42.818;0.404;2023-08-12T01:53:42;10.23;;;3.72;;
55813;SDS011;65494;42.818;0.404;2023-08-12T01:56:08;10.75;;;4.45;;
55813;SDS011;65494;42.818;0.404;2023-08-12T01:58:34;13.90;;;4.32;;
55813;SDS011;65494;42.818;0.404;2023-08-12T02:01:00;15.07;;;4.28;;
55813;SDS011;65494;42.818;0.404;2023-08-12T02:03:26;7.40;;;4.20;;
55813;SDS011;65494;42.818;0.404;2023-08-12T02:05:52;11.95;;;3.92;;
55813;SDS011;65494;42.818;0.404;2023-08-12T02:08:18;10.30;;;4.55;;
55813;SDS011;65494;42.818;0.404;2023-08-12T02:10:44;10.40;;;3.70;;
55813;SDS011;65494;42.818;0.404;2023-08-12T02:13:10;10.20;;;3.97;;
55813;SDS011;65494;42.818;0.404;2023-08-12T02:15:36;10.18;;;3.78;;
55813;SDS011;65494;42.818;0.404;2023-08-12T02:18:03;11.13;;;4.15;;
55813;SDS011;65494;42.818;0.404;2023-08-12T02:20:29;9.40;;;4.00;;
55813;SDS011;65494;42.818;0.404;2023-08-12T02:22:55;8.65;;;4.07;;
55813;SDS011;65494;42.818;0.404;2023-08-12T02:25:21;12.80;;;3.95;;
55813;SDS011;65494;42.818;0.404;2023-08-12T02:27:47;10.48;;;3.70;;
55813;SDS011;65494;42.818;0.404;2023-08-12T02:30:13;11.63;;;4.07;;
55813;SDS011;65494;42.818;0.404;2023-08-12T02:32:39;10.75;;;3.90;;
55813;SDS011;65494;42.818;0.404;2023-08-12T02:35:08;8.82;;;3.67;;
55813;SDS011;65494;42.818;0.404;2023-08-12T02:37:35;11.15;;;4.43;;
55813;SDS011;65494;42.818;0.404;2023-08-12T02:40:01;13.77;;;3.92;;
55813;SDS011;65494;42.818;0.404;2023-08-12T02:42:29;11.00;;;4.25;;
55813;SDS011;65494;42.818;0.404;2023-08-12T02:44:56;13.13;;;4.35;;
55813;SDS011;65494;42.818;0.404;2023-08-12T02:47:22;7.95;;;3.40;;
55813;SDS011;65494;42.818;0.404;2023-08-12T02:49:48;13.35;;;3.85;;
55813;SDS011;65494;42.818;0.404;2023-08-12T02:52:14;10.68;;;4.32;;
55813;SDS011;65494;42.818;0.404;2023-08-12T02:54:40;8.13;;;3.75;;
55813;SDS011;65494;42.818;0.404;2023-08-12T02:57:08;7.80;;;3.53;;
55813;SDS011;65494;42.818;0.404;2023-08-12T02:59:34;6.35;;;2.92;;
55813;SDS011;65494;42.818;0.404;2023-08-12T03:02:00;9.82;;;3.80;;
55813;SDS011;65494;42.818;0.404;2023-08-12T03:04:28;9.27;;;4.00;;
55813;SDS011;65494;42.818;0.404;2023-08-12T03:06:54;9.20;;;3.90;;
55813;SDS011;65494;42.818;0.404;2023-08-12T03:09:20;13.10;;;3.97;;
55813;SDS011;65494;42.818;0.404;2023-08-12T03:11:46;12.20;;;4.70;;
55813;SDS011;65494;42.818;0.404;2023-08-12T03:14:12;11.10;;;3.83;;
55813;SDS011;65494;42.818;0.404;2023-08-12T03:16:38;10.57;;;3.65;;
55813;SDS011;65494;42.818;0.404;2023-08-12T03:19:04;11.65;;;4.05;;
55813;SDS011;65494;42.818;0.404;2023-08-12T03:21:30;7.20;;;3.92;;
55813;SDS011;65494;42.818;0.404;2023-08-12T03:23:57;9.35;;;3.78;;
55813;SDS011;65494;42.818;0.404;2023-08-12T03:26:23;10.85;;;3.25;;
55813;SDS011;65494;42.818;0.404;2023-08-12T03:28:49;8.82;;;3.60;;
55813;SDS011;65494;42.818;0.404;2023-08-12T03:31:15;7.20;;;3.42;;
55813;SDS011;65494;42.818;0.404;2023-08-12T03:33:41;12.50;;;4.03;;
55813;SDS011;65494;42.818;0.404;2023-08-12T03:36:07;9.40;;;3.55;;
55813;SDS011;65494;42.818;0.404;2023-08-12T03:38:33;10.95;;;3.75;;
55813;SDS011;65494;42.818;0.404;2023-08-12T03:41:01;7.93;;;3.83;;
55813;SDS011;65494;42.818;0.404;2023-08-12T03:43:27;9.68;;;3.72;;
55813;SDS011;65494;42.818;0.404;2023-08-12T03:45:53;9.57;;;3.70;;
55813;SDS011;65494;42.818;0.404;2023-08-12T03:48:19;9.13;;;3.90;;
55813;SDS011;65494;42.818;0.404;2023-08-12T03:50:45;8.52;;;3.45;;
55813;SDS011;65494;42.818;0.404;2023-08-12T03:53:12;9.40;;;3.80;;
55813;SDS011;65494;42.818;0.404;2023-08-12T03:55:39;9.23;;;3.80;;
55813;SDS011;65494;42.818;0.404;2023-08-12T03:58:05;8.30;;;3.55;;
55813;SDS011;65494;42.818;0.404;2023-08-12T04:00:31;10.70;;;4.18;;
55813;SDS011;65494;42.818;0.404;2023-08-12T04:02:57;8.88;;;3.40;;
55813;SDS011;65494;42.818;0.404;2023-08-12T04:05:23;9.32;;;3.67;;
55813;SDS011;65494;42.818;0.404;2023-08-12T04:07:49;8.55;;;4.00;;
55813;SDS011;65494;42.818;0.404;2023-08-12T04:10:15;9.27;;;4.05;;
55813;SDS011;65494;42.818;0.404;2023-08-12T04:12:41;9.13;;;4.07;;
55813;SDS011;65494;42.818;0.404;2023-08-12T04:15:08;13.02;;;3.97;;
55813;SDS011;65494;42.818;0.404;2023-08-12T04:17:34;10.57;;;3.83;;
55813;SDS011;65494;42.818;0.404;2023-08-12T04:20:00;10.68;;;4.35;;
55813;SDS011;65494;42.818;0.404;2023-08-12T04:22:30;9.43;;;4.10;;
55813;SDS011;65494;42.818;0.404;2023-08-12T04:24:56;10.30;;;4.15;;
55813;SDS011;65494;42.818;0.404;2023-08-12T04:27:22;9.90;;;3.85;;
55813;SDS011;65494;42.818;0.404;2023-08-12T04:29:48;10.55;;;4.20;;
55813;SDS011;65494;42.818;0.404;2023-08-12T04:32:15;12.93;;;4.00;;
55813;SDS011;65494;42.818;0.404;2023-08-12T04:34:41;9.23;;;3.80;;
55813;SDS011;65494;42.818;0.404;2023-08-12T04:37:07;10.85;;;3.92;;
55813;SDS011;65494;42.818;0.404;2023-08-12T04:39:33;11.05;;;4.10;;
55813;SDS011;65494;42.818;0.404;2023-08-12T04:41:59;9.65;;;3.65;;
55813;SDS011;65494;42.818;0.404;2023-08-12T04:44:25;9.68;;;3.80;;
55813;SDS011;65494;42.818;0.404;2023-08-12T04:46:54;9.27;;;4.00;;
55813;SDS011;65494;42.818;0.404;2023-08-12T04:49:20;11.25;;;3.72;;
55813;SDS011;65494;42.818;0.404;2023-08-12T04:51:48;13.15;;;4.18;;
55813;SDS011;65494;42.818;0.404;2023-08-12T04:54:17;9.80;;;4.40;;
55813;SDS011;65494;42.818;0.404;2023-08-12T04:56:43;9.80;;;4.40;;
55813;SDS011;65494;42.818;0.404;2023-08-12T04:59:09;9.10;;;3.90;;
55813;SDS011;65494;42.818;0.404;2023-08-12T05:01:35;10.93;;;4.03;;
55813;SDS011;65494;42.818;0.404;2023-08-12T05:04:02;10.55;;;4.55;;
55813;SDS011;65494;42.818;0.404;2023-08-12T05:06:28;10.70;;;4.40;;
55813;SDS011;65494;42.818;0.404;2023-08-12T05:08:54;9.77;;;3.85;;
55813;SDS011;65494;42.818;0.404;2023-08-12T05:11:20;7.88;;;3.50;;
55813;SDS011;65494;42.818;0.404;2023-08-12T05:13:46;9.60;;;3.92;;
55813;SDS011;65494;42.818;0.404;2023-08-12T05:16:12;15.38;;;4.47;;
55813;SDS011;65494;42.818;0.404;2023-08-12T05:18:38;12.27;;;3.97;;
55813;SDS011;65494;42.818;0.404;2023-08-12T05:21:04;12.05;;;3.92;;
55813;SDS011;65494;42.818;0.404;2023-08-12T05:23:30;13.85;;;4.00;;
55813;SDS011;65494;42.818;0.404;2023-08-12T05:25:56;13.30;;;4.28;;
55813;SDS011;65494;42.818;0.404;2023-08-12T05:28:22;11.73;;;4.30;;
55813;SDS011;65494;42.818;0.404;2023-08-12T05:30:48;9.95;;;3.92;;
55813;SDS011;65494;42.818;0.404;2023-08-12T05:33:14;8.32;;;3.78;;
55813;SDS011;65494;42.818;0.404;2023-08-12T05:35:40;8.45;;;3.45;;
55813;SDS011;65494;42.818;0.404;2023-08-12T05:38:06;15.02;;;3.95;;
55813;SDS011;65494;42.818;0.404;2023-08-12T05:40:33;9.85;;;3.95;;
55813;SDS011;65494;42.818;0.404;2023-08-12T05:42:59;10.40;;;3.97;;
55813;SDS011;65494;42.818;0.404;2023-08-12T05:45:25;10.15;;;3.72;;
55813;SDS011;65494;42.818;0.404;2023-08-12T05:47:51;11.35;;;3.53;;
55813;SDS011;65494;42.818;0.404;2023-08-12T05:50:17;7.53;;;3.45;;
55813;SDS011;65494;42.818;0.404;2023-08-12T05:52:43;10.20;;;3.80;;
55813;SDS011;65494;42.818;0.404;2023-08-12T05:55:09;10.23;;;3.80;;
55813;SDS011;65494;42.818;0.404;2023-08-12T05:57:35;9.13;;;3.50;;
55813;SDS011;65494;42.818;0.404;2023-08-12T06:00:01;8.50;;;3.47;;
55813;SDS011;65494;42.818;0.404;2023-08-12T06:02:27;9.88;;;3.20;;
55813;SDS011;65494;42.818;0.404;2023-08-12T06:04:53;11.57;;;3.50;;
55813;SDS011;65494;42.818;0.404;2023-08-12T06:07:19;7.78;;;3.60;;
55813;SDS011;65494;42.818;0.404;2023-08-12T06:09:46;13.85;;;3.90;;
55813;SDS011;65494;42.818;0.404;2023-08-12T06:12:12;8.38;;;3.67;;
55813;SDS011;65494;42.818;0.404;2023-08-12T06:14:38;8.38;;;3.70;;
55813;SDS011;65494;42.818;0.404;2023-08-12T06:17:04;11.20;;;4.22;;
55813;SDS011;65494;42.818;0.404;2023-08-12T06:19:30;10.13;;;3.30;;
55813;SDS011;65494;42.818;0.404;2023-08-12T06:21:56;8.43;;;4.00;;
55813;SDS011;65494;42.818;0.404;2023-08-12T06:24:22;12.23;;;4.60;;
55813;SDS011;65494;42.818;0.404;2023-08-12T06:26:48;18.60;;;4.82;;
55813;SDS011;65494;42.818;0.404;2023-08-12T06:29:14;17.52;;;5.68;;
55813;SDS011;65494;42.818;0.404;2023-08-12T06:31:41;13.40;;;5.07;;
55813;SDS011;65494;42.818;0.404;2023-08-12T06:34:07;11.38;;;5.15;;
55813;SDS011;65494;42.818;0.404;2023-08-12T06:36:33;15.55;;;5.10;;
55813;SDS011;65494;42.818;0.404;2023-08-12T06:38:59;15.23;;;6.15;;
55813;SDS011;65494;42.818;0.404;2023-08-12T06:41:25;12.98;;;6.22;;
55813;SDS011;65494;42.818;0.404;2023-08-12T06:43:51;11.68;;;5.25;;
55813;SDS011;65494;42.818;0.404;2023-08-12T06:46:17;12.77;;;4.60;;
55813;SDS011;65494;42.818;0.404;2023-08-12T06:48:43;11.50;;;4.63;;
55813;SDS011;65494;42.818;0.404;2023-08-12T06:51:09;15.88;;;6.20;;
55813;SDS011;65494;42.818;0.404;2023-08-12T06:53:35;16.23;;;5.78;;
55813;SDS011;65494;42.818;0.404;2023-08-12T06:56:02;15.98;;;5.68;;
55813;SDS011;65494;42.818;0.404;2023-08-12T06:58:28;17.92;;;6.25;;
55813;SDS011;65494;42.818;0.404;2023-08-12T07:00:54;16.65;;;7.10;;
55813;SDS011;65494;42.818;0.404;2023-08-12T07:03:21;15.23;;;5.57;;
55813;SDS011;65494;42.818;0.404;2023-08-12T07:05:47;12.10;;;4.65;;
55813;SDS011;65494;42.818;0.404;2023-08-12T07:08:13;13.82;;;4.32;;
55813;SDS011;65494;42.818;0.404;2023-08-12T07:10:41;11.57;;;4.25;;
55813;SDS011;65494;42.818;0.404;2023-08-12T07:13:07;15.15;;;4.35;;
55813;SDS011;65494;42.818;0.404;2023-08-12T07:15:33;9.20;;;3.40;;
55813;SDS011;65494;42.818;0.404;2023-08-12T07:17:59;6.82;;;3.20;;
55813;SDS011;65494;42.818;0.404;2023-08-12T07:20:25;12.43;;;3.50;;
55813;SDS011;65494;42.818;0.404;2023-08-12T07:22:51;7.63;;;3.22;;
55813;SDS011;65494;42.818;0.404;2023-08-12T07:25:18;8.45;;;2.80;;
55813;SDS011;65494;42.818;0.404;2023-08-12T07:27:44;8.38;;;3.20;;
55813;SDS011;65494;42.818;0.404;2023-08-12T07:30:10;6.72;;;2.95;;
55813;SDS011;65494;42.818;0.404;2023-08-12T07:32:37;10.98;;;3.40;;
55813;SDS011;65494;42.818;0.404;2023-08-12T07:35:04;8.38;;;3.20;;
55813;SDS011;65494;42.818;0.404;2023-08-12T07:37:33;7.15;;;3.13;;
55813;SDS011;65494;42.818;0.404;2023-08-12T07:39:59;11.73;;;3.35;;
55813;SDS011;65494;42.818;0.404;2023-08-12T07:42:26;11.65;;;3.88;;
55813;SDS011;65494;42.818;0.404;2023-08-12T07:44:52;10.68;;;3.30;;
55813;SDS011;65494;42.818;0.404;2023-08-12T07:47:18;6.50;;;2.90;;
55813;SDS011;65494;42.818;0.404;2023-08-12T07:49:44;12.30;;;3.10;;
55813;SDS011;65494;42.818;0.404;2023-08-12T07:52:10;8.55;;;2.80;;
55813;SDS011;65494;42.818;0.404;2023-08-12T07:54:36;9.07;;;3.17;;
55813;SDS011;65494;42.818;0.404;2023-08-12T07:57:02;8.80;;;3.08;;
55813;SDS011;65494;42.818;0.404;2023-08-12T07:59:29;7.57;;;2.95;;
55813;SDS011;65494;42.818;0.404;2023-08-12T08:01:55;7.55;;;3.00;;
55813;SDS011;65494;42.818;0.404;2023-08-12T08:04:21;7.50;;;3.10;;
55813;SDS011;65494;42.818;0.404;2023-08-12T08:06:47;7.25;;;3.15;;
55813;SDS011;65494;42.818;0.404;2023-08-12T08:09:13;13.10;;;2.90;;
55813;SDS011;65494;42.818;0.404;2023-08-12T08:11:39;8.68;;;2.90;;
55813;SDS011;65494;42.818;0.404;2023-08-12T08:14:05;8.77;;;2.90;;
55813;SDS011;65494;42.818;0.404;2023-08-12T08:16:31;8.25;;;3.13;;
55813;SDS011;65494;42.818;0.404;2023-08-12T08:18:57;8.18;;;2.65;;
55813;SDS011;65494;42.818;0.404;2023-08-12T08:21:23;8.73;;;2.88;;
55813;SDS011;65494;42.818;0.404;2023-08-12T08:23:49;10.23;;;3.08;;
55813;SDS011;65494;42.818;0.404;2023-08-12T08:26:15;8.23;;;2.63;;
55813;SDS011;65494;42.818;0.404;2023-08-12T08:28:42;8.52;;;3.35;;
55813;SDS011;65494;42.818;0.404;2023-08-12T08:31:08;8.05;;;2.78;;
55813;SDS011;65494;42.818;0.404;2023-08-12T08:33:34;6.57;;;2.75;;
55813;SDS011;65494;42.818;0.404;2023-08-12T08:36:00;9.65;;;2.85;;
55813;SDS011;65494;42.818;0.404;2023-08-12T08:38:26;10.82;;;2.80;;
55813;SDS011;65494;42.818;0.404;2023-08-12T08:40:52;11.30;;;3.33;;
55813;SDS011;65494;42.818;0.404;2023-08-12T08:43:20;7.72;;;2.60;;
55813;SDS011;65494;42.818;0.404;2023-08-12T08:45:52;11.15;;;2.85;;
55813;SDS011;65494;42.818;0.404;2023-08-12T08:48:19;7.47;;;2.95;;
55813;SDS011;65494;42.818;0.404;2023-08-12T08:50:46;9.85;;;2.70;;
55813;SDS011;65494;42.818;0.404;2023-08-12T08:53:13;8.27;;;2.92;;
55813;SDS011;65494;42.818;0.404;2023-08-12T08:55:40;8.70;;;3.30;;
55813;SDS011;65494;42.818;0.404;2023-08-12T08:58:06;8.15;;;3.00;;
55813;SDS011;65494;42.818;0.404;2023-08-12T09:00:32;8.10;;;3.15;;
55813;SDS011;65494;42.818;0.404;2023-08-12T09:02:59;10.13;;;3.08;;
55813;SDS011;65494;42.818;0.404;2023-08-12T09:05:27;10.15;;;3.50;;
55813;SDS011;65494;42.818;0.404;2023-08-12T09:07:54;12.15;;;3.28;;
55813;SDS011;65494;42.818;0.404;2023-08-12T09:10:21;7.78;;;3.25;;
55813;SDS011;65494;42.818;0.404;2023-08-12T09:12:48;9.55;;;3.35;;
55813;SDS011;65494;42.818;0.404;2023-08-12T09:15:15;11.45;;;2.90;;
55813;SDS011;65494;42.818;0.404;2023-08-12T09:17:42;7.55;;;3.03;;
55813;SDS011;65494;42.818;0.404;2023-08-12T09:20:08;10.68;;;3.05;;
55813;SDS011;65494;42.818;0.404;2023-08-12T09:22:37;6.95;;;2.92;;
55813;SDS011;65494;42.818;0.404;2023-08-12T09:25:03;8.65;;;3.40;;
55813;SDS011;65494;42.818;0.404;2023-08-12T09:27:30;9.32;;;2.75;;
55813;SDS011;65494;42.818;0.404;2023-08-12T09:29:56;8.25;;;2.40;;
55813;SDS011;65494;42.818;0.404;2023-08-12T09:32:22;8.60;;;2.83;;
55813;SDS011;65494;42.818;0.404;2023-08-12T09:34:55;5.82;;;2.63;;
55813;SDS011;65494;42.818;0.404;2023-08-12T09:37:22;9.85;;;2.90;;
55813;SDS011;65494;42.818;0.404;2023-08-12T09:39:49;7.85;;;3.08;;
55813;SDS011;65494;42.818;0.404;2023-08-12T09:42:16;7.28;;;2.60;;
55813;SDS011;65494;42.818;0.404;2023-08-12T09:44:42;7.13;;;2.40;;
55813;SDS011;65494;42.818;0.404;2023-08-12T09:47:08;8.10;;;3.03;;
55813;SDS011;65494;42.818;0.404;2023-08-12T09:49:35;7.32;;;2.78;;
55813;SDS011;65494;42.818;0.404;2023-08-12T09:52:04;8.98;;;2.95;;
55813;SDS011;65494;42.818;0.404;2023-08-12T09:54:34;7.75;;;2.92;;
55813;SDS011;65494;42.818;0.404;2023-08-12T09:57:01;6.32;;;2.70;;
55813;SDS011;65494;42.818;0.404;2023-08-12T09:59:30;10.48;;;3.13;;
55813;SDS011;65494;42.818;0.404;2023-08-12T10:01:56;12.60;;;3.42;;
55813;SDS011;65494;42.818;0.404;2023-08-12T10:04:23;8.48;;;2.60;;
55813;SDS011;65494;42.818;0.404;2023-08-12T10:06:52;7.43;;;2.60;;
55813;SDS011;65494;42.818;0.404;2023-08-12T10:09:19;7.88;;;2.88;;
55813;SDS011;65494;42.818;0.404;2023-08-12T10:11:46;8.23;;;2.58;;
55813;SDS011;65494;42.818;0.404;2023-08-12T10:14:13;7.07;;;2.90;;
55813;SDS011;65494;42.818;0.404;2023-08-12T10:16:39;7.95;;;2.78;;
55813;SDS011;65494;42.818;0.404;2023-08-12T10:19:10;8.20;;;2.75;;
55813;SDS011;65494;42.818;0.404;2023-08-12T10:21:36;9.57;;;3.10;;
55813;SDS011;65494;42.818;0.404;2023-08-12T10:24:03;6.63;;;2.70;;
55813;SDS011;65494;42.818;0.404;2023-08-12T10:26:29;10.40;;;3.35;;
55813;SDS011;65494;42.818;0.404;2023-08-12T10:28:55;11.90;;;3.17;;
55813;SDS011;65494;42.818;0.404;2023-08-12T10:31:22;9.43;;;2.65;;
55813;SDS011;65494;42.818;0.404;2023-08-12T10:33:48;8.63;;;2.58;;
55813;SDS011;65494;42.818;0.404;2023-08-12T10:36:15;10.35;;;3.00;;
55813;SDS011;65494;42.818;0.404;2023-08-12T10:38:44;9.57;;;2.70;;
55813;SDS011;65494;42.818;0.404;2023-08-12T10:41:15;11.65;;;2.90;;
55813;SDS011;65494;42.818;0.404;2023-08-12T10:46:23;9.60;;;3.00;;
55813;SDS011;65494;42.818;0.404;2023-08-12T10:48:56;7.20;;;2.80;;
55813;SDS011;65494;42.818;0.404;2023-08-12T10:51:45;7.18;;;2.72;;
55813;SDS011;65494;42.818;0.404;2023-08-12T10:54:15;14.88;;;3.15;;
55813;SDS011;65494;42.818;0.404;2023-08-12T11:02:19;6.75;;;2.50;;
55813;SDS011;65494;42.818;0.404;2023-08-12T11:05:19;7.10;;;2.90;;
55813;SDS011;65494;42.818;0.404;2023-08-12T11:07:45;11.25;;;3.17;;
55813;SDS011;65494;42.818;0.404;2023-08-12T11:12:38;9.88;;;3.20;;
55813;SDS011;65494;42.818;0.404;2023-08-12T11:15:05;7.18;;;2.90;;
55813;SDS011;65494;42.818;0.404;2023-08-12T11:17:32;10.93;;;2.88;;
55813;SDS011;65494;42.818;0.404;2023-08-12T11:19:58;8.88;;;3.03;;
55813;SDS011;65494;42.818;0.404;2023-08-12T11:22:25;8.80;;;2.97;;
55813;SDS011;65494;42.818;0.404;2023-08-12T11:24:51;11.40;;;2.78;;
55813;SDS011;65494;42.818;0.404;2023-08-12T11:27:17;7.38;;;2.75;;
55813;SDS011;65494;42.818;0.404;2023-08-12T11:29:43;8.55;;;2.88;;
55813;SDS011;65494;42.818;0.404;2023-08-12T11:32:09;8.27;;;2.90;;
55813;SDS011;65494;42.818;0.404;2023-08-12T11:34:36;7.65;;;2.95;;
55813;SDS011;65494;42.818;0.404;2023-08-12T11:37:03;8.23;;;3.08;;
55813;SDS011;65494;42.818;0.404;2023-08-12T11:39:29;5.47;;;2.58;;
55813;SDS011;65494;42.818;0.404;2023-08-12T11:41:55;9.57;;;3.00;;
55813;SDS011;65494;42.818;0.404;2023-08-12T11:44:22;8.15;;;3.05;;
55813;SDS011;65494;42.818;0.404;2023-08-12T11:46:49;9.20;;;3.63;;
55813;SDS011;65494;42.818;0.404;2023-08-12T11:49:15;7.50;;;2.83;;
55813;SDS011;65494;42.818;0.404;2023-08-12T11:51:42;7.03;;;3.05;;
55813;SDS011;65494;42.818;0.404;2023-08-12T11:54:09;7.47;;;2.83;;
55813;SDS011;65494;42.818;0.404;2023-08-12T11:56:35;6.45;;;2.83;;
55813;SDS011;65494;42.818;0.404;2023-08-12T11:59:02;8.05;;;3.25;;
55813;SDS011;65494;42.818;0.404;2023-08-12T12:01:30;8.57;;;2.90;;
55813;SDS011;65494;42.818;0.404;2023-08-12T12:03:59;8.88;;;3.25;;
55813;SDS011;65494;42.818;0.404;2023-08-12T12:06:32;9.82;;;3.08;;
55813;SDS011;65494;42.818;0.404;2023-08-12T12:09:06;7.73;;;2.60;;
55813;SDS011;65494;42.818;0.404;2023-08-12T12:11:35;9.73;;;3.20;;
55813;SDS011;65494;42.818;0.404;2023-08-12T12:14:05;10.07;;;2.90;;
55813;SDS011;65494;42.818;0.404;2023-08-12T12:16:44;9.15;;;2.70;;
55813;SDS011;65494;42.818;0.404;2023-08-12T12:19:21;7.75;;;2.97;;
55813;SDS011;65494;42.818;0.404;2023-08-12T12:21:51;9.52;;;3.20;;
55813;SDS011;65494;42.818;0.404;2023-08-12T12:24:17;10.85;;;3.28;;
55813;SDS011;65494;42.818;0.404;2023-08-12T12:26:44;10.98;;;3.30;;
55813;SDS011;65494;42.818;0.404;2023-08-12T12:29:10;7.82;;;3.10;;
55813;SDS011;65494;42.818;0.404;2023-08-12T12:31:37;7.85;;;3.15;;
55813;SDS011;65494;42.818;0.404;2023-08-12T12:34:04;8.80;;;3.10;;
55813;SDS011;65494;42.818;0.404;2023-08-12T12:36:31;8.35;;;3.30;;
55813;SDS011;65494;42.818;0.404;2023-08-12T12:38:57;14.45;;;3.13;;
55813;SDS011;65494;42.818;0.404;2023-08-12T12:41:23;8.07;;;3.35;;
55813;SDS011;65494;42.818;0.404;2023-08-12T12:43:49;7.97;;;3.15;;
55813;SDS011;65494;42.818;0.404;2023-08-12T12:46:15;8.75;;;3.10;;
55813;SDS011;65494;42.818;0.404;2023-08-12T12:48:42;8.50;;;3.35;;
55813;SDS011;65494;42.818;0.404;2023-08-12T12:51:08;7.57;;;2.85;;
55813;SDS011;65494;42.818;0.404;2023-08-12T12:53:34;8.02;;;3.53;;
55813;SDS011;65494;42.818;0.404;2023-08-12T12:56:00;8.50;;;3.65;;
55813;SDS011;65494;42.818;0.404;2023-08-12T12:58:32;11.45;;;3.65;;
55813;SDS011;65494;42.818;0.404;2023-08-12T13:00:59;11.35;;;3.45;;
55813;SDS011;65494;42.818;0.404;2023-08-12T13:03:25;10.40;;;4.00;;
55813;SDS011;65494;42.818;0.404;2023-08-12T13:05:51;8.90;;;3.75;;
55813;SDS011;65494;42.818;0.404;2023-08-12T13:08:17;12.15;;;3.92;;
55813;SDS011;65494;42.818;0.404;2023-08-12T13:10:43;13.27;;;4.10;;
55813;SDS011;65494;42.818;0.404;2023-08-12T13:13:09;13.57;;;4.20;;
55813;SDS011;65494;42.818;0.404;2023-08-12T13:15:35;12.70;;;5.15;;
55813;SDS011;65494;42.818;0.404;2023-08-12T13:18:02;8.70;;;3.53;;
55813;SDS011;65494;42.818;0.404;2023-08-12T13:20:28;11.10;;;4.07;;
55813;SDS011;65494;42.818;0.404;2023-08-12T13:22:54;11.00;;;4.18;;
55813;SDS011;65494;42.818;0.404;2023-08-12T13:25:20;10.23;;;4.88;;
55813;SDS011;65494;42.818;0.404;2023-08-12T13:27:46;14.50;;;4.20;;
55813;SDS011;65494;42.818;0.404;2023-08-12T13:30:12;13.75;;;4.75;;
55813;SDS011;65494;42.818;0.404;2023-08-12T13:32:38;12.85;;;4.28;;
55813;SDS011;65494;42.818;0.404;2023-08-12T13:35:04;13.52;;;4.47;;
55813;SDS011;65494;42.818;0.404;2023-08-12T13:37:33;10.32;;;4.38;;
55813;SDS011;65494;42.818;0.404;2023-08-12T13:40:00;15.63;;;4.20;;
55813;SDS011;65494;42.818;0.404;2023-08-12T13:42:26;11.65;;;4.88;;
55813;SDS011;65494;42.818;0.404;2023-08-12T13:44:52;15.98;;;4.45;;
55813;SDS011;65494;42.818;0.404;2023-08-12T13:47:18;10.60;;;4.15;;
55813;SDS011;65494;42.818;0.404;2023-08-12T13:49:44;12.32;;;4.18;;
55813;SDS011;65494;42.818;0.404;2023-08-12T13:52:10;15.68;;;4.20;;
55813;SDS011;65494;42.818;0.404;2023-08-12T13:54:36;11.73;;;4.25;;
55813;SDS011;65494;42.818;0.404;2023-08-12T13:57:02;12.60;;;3.97;;
55813;SDS011;65494;42.818;0.404;2023-08-12T13:59:29;11.25;;;4.60;;
55813;SDS011;65494;42.818;0.404;2023-08-12T14:01:55;14.98;;;4.80;;
55813;SDS011;65494;42.818;0.404;2023-08-12T14:04:21;14.80;;;5.00;;
55813;SDS011;65494;42.818;0.404;2023-08-12T14:06:47;11.15;;;4.43;;
55813;SDS011;65494;42.818;0.404;2023-08-12T14:09:13;12.35;;;4.68;;
55813;SDS011;65494;42.818;0.404;2023-08-12T14:11:41;12.35;;;5.00;;
55813;SDS011;65494;42.818;0.404;2023-08-12T14:14:07;14.68;;;4.75;;
55813;SDS011;65494;42.818;0.404;2023-08-12T14:16:33;13.07;;;5.00;;
55813;SDS011;65494;42.818;0.404;2023-08-12T14:18:59;13.20;;;4.90;;
55813;SDS011;65494;42.818;0.404;2023-08-12T14:21:25;15.23;;;4.72;;
55813;SDS011;65494;42.818;0.404;2023-08-12T14:23:51;14.25;;;5.30;;
55813;SDS011;65494;42.818;0.404;2023-08-12T14:26:17;11.38;;;4.95;;
55813;SDS011;65494;42.818;0.404;2023-08-12T14:28:43;14.25;;;5.18;;
55813;SDS011;65494;42.818;0.404;2023-08-12T14:31:09;16.55;;;5.80;;
55813;SDS011;65494;42.818;0.404;2023-08-12T14:33:35;12.45;;;5.20;;
55813;SDS011;65494;42.818;0.404;2023-08-12T14:36:02;10.68;;;4.90;;
55813;SDS011;65494;42.818;0.404;2023-08-12T14:38:29;16.85;;;5.07;;
55813;SDS011;65494;42.818;0.404;2023-08-12T14:40:56;16.05;;;5.30;;
55813;SDS011;65494;42.818;0.404;2023-08-12T14:43:22;12.35;;;5.30;;
55813;SDS011;65494;42.818;0.404;2023-08-12T14:45:48;18.65;;;6.15;;
55813;SDS011;65494;42.818;0.404;2023-08-12T14:48:14;17.63;;;5.35;;
55813;SDS011;65494;42.818;0.404;2023-08-12T14:50:41;17.90;;;6.38;;